Time;durP1;ratioP1;P1;durP2;ratioP2;P2;SDS_P1;SDS_P2;PMS_P1;PMS_P2;Temp;Humidity;BMP_temperature;BMP_pressure;BME280_temperature;BME280_humidity;BME280_pressure;Samples;Min_cycle;Max_cycle;Signal;HPM_P1;HPM_P2
2023/04/28 00:01:56;;;;;;;11.23;4.20;;;;;;;10.73;43.93;96570.53;6293713;28;20102;-75
2023/04/28 00:05:02;;;;;;;10.32;4.53;;;;;;;10.74;44.09;96571.38;6294113;28;20055;-74
2023/04/28 00:08:10;;;;;;;14.27;4.53;;;;;;;10.76;44.09;96572.94;6293519;28;20529;-73
2023/04/28 00:11:17;;;;;;;9.40;4.07;;;;;;;10.77;44.15;96560.63;6293074;28;20056;-73
2023/04/28 00:14:22;;;;;;;14.65;4.38;;;;;;;10.82;44.29;96562.94;6292458;28;20561;-74
2023/04/28 00:17:26;;;;;;;14.85;4.88;;;;;;;10.82;44.11;96562.94;6293453;28;20059;-74
2023/04/28 00:20:30;;;;;;;16.08;4.68;;;;;;;10.84;44.18;96555.75;6294415;28;20048;-74
2023/04/28 00:23:34;;;;;;;16.25;4.60;;;;;;;10.89;44.44;96558.91;6297608;28;20048;-76
2023/04/28 00:26:38;;;;;;;8.98;4.70;;;;;;;10.86;44.33;96553.88;6297929;28;20052;-74
2023/04/28 00:29:44;;;;;;;11.05;4.70;;;;;;;10.91;44.36;96563.13;6297105;28;20044;-74
2023/04/28 00:32:46;;;;;;;16.80;4.68;;;;;;;10.89;44.38;96561.53;6296525;28;20052;-73
2023/04/28 00:35:57;;;;;;;;;;;;;;;10.85;44.35;96560.09;6298249;28;20049;-73
2023/04/28 00:39:02;;;;;;;13.75;3.47;;;;;;;10.76;44.73;96549.28;6295648;28;20316;-74
2023/04/28 00:42:07;;;;;;;11.75;4.18;;;;;;;10.74;44.86;96561.69;6295978;28;20083;-74
2023/04/28 00:45:08;;;;;;;11.20;4.00;;;;;;;10.76;45.20;96565.06;6297214;28;20775;-74
2023/04/28 00:48:15;;;;;;;14.10;4.57;;;;;;;10.81;45.11;96555.97;6296998;28;20051;-75
2023/04/28 00:51:22;;;;;;;14.98;4.40;;;;;;;10.79;45.48;96550.84;6296726;28;20048;-74
2023/04/28 00:54:26;;;;;;;18.23;9.57;;;;;;;10.78;45.40;96542.13;6296911;28;20059;-74
2023/04/28 00:57:35;;;;;;;17.20;6.22;;;;;;;10.89;45.71;96553.66;6297514;28;20041;-74
2023/04/28 01:00:43;;;;;;;13.55;5.50;;;;;;;10.92;45.41;96549.00;6296980;28;20060;-74
2023/04/28 01:03:46;;;;;;;17.50;5.60;;;;;;;11.00;45.35;96556.34;6296856;28;20040;-73
2023/04/28 01:06:52;;;;;;;16.37;4.63;;;;;;;11.05;45.37;96556.88;6296716;28;20182;-74
2023/04/28 01:09:56;;;;;;;17.15;5.60;;;;;;;11.08;45.27;96561.91;6297320;28;20119;-74
2023/04/28 01:13:02;;;;;;;14.95;5.35;;;;;;;11.13;45.47;96556.34;6296705;28;20036;-74
2023/04/28 01:16:04;;;;;;;14.73;5.75;;;;;;;11.15;45.62;96560.53;6296642;28;20106;-74
2023/04/28 01:19:16;;;;;;;28.73;5.63;;;;;;;11.28;45.51;96564.91;6296577;28;20422;-74
2023/04/28 01:22:22;;;;;;;21.15;6.50;;;;;;;11.33;45.34;96562.78;6296696;28;20044;-74
2023/04/28 01:25:25;;;;;;;;;;;;;;;11.47;45.04;96570.53;6297190;28;20036;-74
2023/04/28 01:28:31;;;;;;;19.02;5.47;;;;;;;11.58;44.96;96573.22;6296311;28;19927;-74
2023/04/28 01:31:40;;;;;;;17.17;5.30;;;;;;;11.67;45.06;96567.25;6295601;28;20048;-73
2023/04/28 01:34:45;;;;;;;22.58;6.65;;;;;;;11.72;44.95;96569.56;6296209;28;20044;-74
2023/04/28 01:37:47;;;;;;;20.38;6.32;;;;;;;11.76;45.13;96564.91;6295782;28;20055;-74
2023/04/28 01:40:53;;;;;;;25.60;5.80;;;;;;;11.76;45.04;96565.72;6295751;28;20048;-75
2023/04/28 01:43:59;;;;;;;21.58;6.50;;;;;;;11.87;44.97;96572.88;6296227;28;20052;-75
2023/04/28 01:47:03;;;;;;;24.25;7.30;;;;;;;11.96;45.12;96577.44;6296173;28;20521;-74
2023/04/28 01:50:07;;;;;;;28.08;7.13;;;;;;;12.00;44.95;96563.09;6294931;28;20051;-73
2023/04/28 01:53:19;;;;;;;21.00;7.05;;;;;;;12.13;45.09;96579.66;6295610;28;20052;-74
2023/04/28 01:56:25;;;;;;;20.35;6.75;;;;;;;12.27;44.87;96580.41;6295440;28;20048;-74
2023/04/28 01:59:29;;;;;;;36.15;7.55;;;;;;;12.38;44.50;96580.44;6294070;28;20516;-75
2023/04/28 02:02:36;;;;;;;29.50;7.20;;;;;;;12.50;44.34;96576.84;6295906;28;20048;-74
2023/04/28 02:05:41;;;;;;;17.02;6.30;;;;;;;12.66;44.03;96580.94;6295152;28;20513;-75
2023/04/28 02:08:46;;;;;;;22.15;5.88;;;;;;;12.86;43.98;96585.50;6295193;28;20045;-74
2023/04/28 02:11:50;;;;;;;19.30;6.22;;;;;;;13.01;43.59;96586.91;6294862;28;20429;-74
2023/04/28 02:14:57;;;;;;;22.00;5.95;;;;;;;13.16;43.71;96589.28;6295292;28;20193;-74
2023/04/28 02:18:09;;;;;;;26.52;6.05;;;;;;;13.27;43.67;96591.94;6295027;28;20143;-74
2023/04/28 02:21:13;;;;;;;21.65;5.65;;;;;;;13.27;43.78;96591.94;6295174;28;20052;-74
2023/04/28 02:24:14;;;;;;;26.08;6.75;;;;;;;13.31;44.06;96582.84;6294632;28;20132;-74
2023/04/28 02:27:20;;;;;;;29.42;6.32;;;;;;;13.34;44.10;96587.03;6295313;28;20044;-75
2023/04/28 02:30:21;;;;;;;29.00;6.57;;;;;;;13.42;44.19;96595.19;6294437;28;20048;-75
2023/04/28 02:33:23;;;;;;;31.60;7.65;;;;;;;13.42;44.28;96590.75;6294583;28;20056;-75
2023/04/28 02:36:32;;;;;;;34.53;8.25;;;;;;;13.46;44.05;96592.16;6294933;28;20123;-74
2023/04/28 02:39:42;;;;;;;35.72;7.38;;;;;;;13.56;44.31;96592.25;6294955;28;20048;-74
2023/04/28 02:42:44;;;;;;;29.33;7.30;;;;;;;13.62;44.17;96590.94;6294609;28;20045;-76
2023/04/28 02:45:51;;;;;;;29.38;7.72;;;;;;;13.67;44.08;96588.72;6294598;28;20414;-74
2023/04/28 02:48:57;;;;;;;23.77;7.30;;;;;;;13.73;44.00;96587.38;6295032;28;20541;-75
2023/04/28 02:52:03;;;;;;;23.92;7.53;;;;;;;13.78;43.86;96591.31;6294843;28;20135;-74
2023/04/28 02:55:05;;;;;;;27.88;7.05;;;;;;;13.87;43.79;96590.59;6293014;28;20060;-73
2023/04/28 02:58:06;;;;;;;23.98;6.78;;;;;;;13.98;43.51;96596.78;6293640;28;20437;-75
2023/04/28 03:01:10;;;;;;;27.30;5.93;;;;;;;14.08;43.24;96597.72;6294180;28;20040;-75
2023/04/28 03:04:15;;;;;;;22.80;6.47;;;;;;;14.17;43.16;96596.94;6293677;28;20049;-74
2023/04/28 03:07:16;;;;;;;30.55;8.82;;;;;;;14.26;43.05;96604.09;6294162;28;20059;-75
2023/04/28 03:10:19;;;;;;;54.60;12.23;;;;;;;14.38;43.01;96603.06;6294158;28;20044;-74
2023/04/28 03:13:28;;;;;;;48.80;10.68;;;;;;;14.52;42.70;96601.06;6294058;28;20211;-75
2023/04/28 03:16:37;;;;;;;34.50;9.65;;;;;;;14.65;42.57;96601.72;6294784;28;20518;-76
2023/04/28 03:19:58;;;;;;;48.72;11.13;;;;;;;14.76;42.51;96599.00;6293703;28;20048;-74
2023/04/28 03:23:40;;;;;;;41.47;10.20;;;;;;;14.89;42.10;96601.44;6294467;28;20045;-75
2023/04/28 03:26:45;;;;;;;37.22;10.30;;;;;;;15.00;41.80;96595.19;6293236;28;20053;-75
2023/04/28 03:29:49;;;;;;;40.17;9.50;;;;;;;15.11;41.61;96600.38;6292980;28;20541;-74
2023/04/28 03:32:56;;;;;;;38.30;9.75;;;;;;;15.20;41.27;96596.94;6293515;28;20584;-74
2023/04/28 03:36:09;;;;;;;35.35;9.18;;;;;;;15.39;41.00;96603.25;6293889;28;20262;-75
2023/04/28 03:39:17;;;;;;;32.70;9.50;;;;;;;15.48;40.79;96602.44;6293169;28;20072;-74
2023/04/28 03:42:30;;;;;;;34.80;9.25;;;;;;;15.60;40.56;96608.47;6294431;28;20040;-75
2023/04/28 03:45:39;;;;;;;37.17;9.70;;;;;;;15.69;40.43;96607.69;6294210;28;20044;-74
2023/04/28 03:48:45;;;;;;;35.15;9.48;;;;;;;15.87;40.12;96607.84;6294165;28;20048;-74
2023/04/28 03:51:52;;;;;;;40.60;8.25;;;;;;;15.99;39.80;96604.06;6294348;28;20041;-76
2023/04/28 03:54:58;;;;;;;38.80;9.60;;;;;;;16.12;39.46;96609.94;6294430;28;20139;-74
2023/04/28 03:58:04;;;;;;;37.60;8.75;;;;;;;16.27;39.03;96596.22;6298564;28;20048;-74
2023/04/28 04:01:13;;;;;;;28.73;7.97;;;;;;;16.48;38.45;96604.88;6298366;28;20043;-73
2023/04/28 04:04:17;;;;;;;32.95;9.13;;;;;;;16.71;37.83;96599.22;6298482;28;20094;-74
2023/04/28 04:07:24;;;;;;;32.30;9.65;;;;;;;16.95;37.45;96610.22;6298334;28;20040;-74
2023/04/28 04:10:30;;;;;;;37.45;10.10;;;;;;;17.33;36.57;96607.56;6298962;28;20072;-74
2023/04/28 04:13:31;;;;;;;33.45;9.43;;;;;;;17.75;35.74;96602.53;6297741;28;20576;-74
2023/04/28 04:16:34;;;;;;;37.28;9.40;;;;;;;18.28;34.88;96616.84;6297017;28;20051;-75
2023/04/28 04:19:35;;;;;;;34.30;8.73;;;;;;;18.59;34.20;96610.09;6297708;28;20041;-75
2023/04/28 04:22:42;;;;;;;19.80;6.70;;;;;;;18.82;33.53;96615.81;6298337;28;20036;-74
2023/04/28 04:25:49;;;;;;;25.25;5.68;;;;;;;19.16;33.11;96622.97;6298102;28;20055;-75
2023/04/28 04:28:53;;;;;;;18.42;5.07;;;;;;;19.53;31.88;96619.13;6298041;28;20036;-74
2023/04/28 04:31:57;;;;;;;18.02;4.63;;;;;;;19.86;31.12;96616.59;6297173;28;20138;-74
2023/04/28 04:34:59;;;;;;;18.15;5.20;;;;;;;20.23;30.71;96617.97;6297803;28;20044;-75
2023/04/28 04:38:04;;;;;;;24.98;7.28;;;;;;;20.52;30.16;96631.69;6296920;28;20585;-74
2023/04/28 04:41:08;;;;;;;21.35;6.57;;;;;;;20.71;29.78;96632.38;6297181;28;20053;-75
2023/04/28 04:44:09;;;;;;;25.98;8.00;;;;;;;20.83;29.51;96625.66;6297026;28;20057;-74
2023/04/28 04:47:16;;;;;;;21.45;6.00;;;;;;;21.01;29.07;96626.31;6297113;28;20052;-74
2023/04/28 04:50:20;;;;;;;18.98;6.47;;;;;;;21.55;28.19;96632.88;6296959;28;20052;-74
2023/04/28 04:53:24;;;;;;;16.90;5.85;;;;;;;24.14;25.56;96634.34;6297080;28;20052;-75
2023/04/28 04:56:30;;;;;;;17.55;5.25;;;;;;;27.71;21.52;96640.56;6297406;28;20051;-74
2023/04/28 04:59:36;;;;;;;14.98;4.82;;;;;;;31.08;18.62;96644.84;6297510;28;20051;-74
2023/04/28 05:02:43;;;;;;;11.07;3.72;;;;;;;33.97;15.93;96644.25;6297739;28;20045;-74
2023/04/28 05:05:47;;;;;;;11.57;3.80;;;;;;;36.23;13.99;96655.19;6296116;28;20048;-73
2023/04/28 05:08:58;;;;;;;18.13;4.68;;;;;;;37.91;12.47;96651.72;6297399;28;20131;-73
2023/04/28 05:12:04;;;;;;;9.02;3.28;;;;;;;39.32;11.65;96644.03;6297146;28;20056;-74
2023/04/28 05:15:08;;;;;;;9.55;2.33;;;;;;;41.02;10.03;96646.34;6296924;28;20490;-73
2023/04/28 05:18:12;;;;;;;6.45;1.77;;;;;;;42.17;9.68;96642.91;6296566;28;20056;-74
2023/04/28 05:21:20;;;;;;;5.85;1.45;;;;;;;43.28;8.85;96649.78;6296568;28;20048;-75
2023/04/28 05:24:27;;;;;;;4.68;1.65;;;;;;;42.97;8.88;96648.88;6296215;28;20048;-74
2023/04/28 05:27:36;;;;;;;5.28;1.73;;;;;;;42.68;8.69;96650.09;6297071;28;20036;-75
2023/04/28 05:30:43;;;;;;;10.95;1.92;;;;;;;41.86;9.26;96643.50;6296488;28;20113;-74
2023/04/28 05:33:51;;;;;;;6.47;1.50;;;;;;;41.82;9.19;96648.00;6295427;28;20126;-75
2023/04/28 05:36:56;;;;;;;4.57;1.88;;;;;;;42.68;8.59;96655.63;6296323;28;20048;-75
2023/04/28 05:39:59;;;;;;;9.23;1.67;;;;;;;44.45;7.92;96656.06;6296152;28;20052;-74
2023/04/28 05:43:06;;;;;;;6.00;2.33;;;;;;;46.04;6.94;96656.38;6296453;28;20040;-74
2023/04/28 05:46:14;;;;;;;7.47;1.70;;;;;;;46.75;6.67;96659.25;6296390;28;20498;-75
2023/04/28 05:49:21;;;;;;;4.53;1.30;;;;;;;48.31;5.88;96658.78;6296002;28;20137;-75
2023/04/28 05:52:24;;;;;;;5.68;1.85;;;;;;;49.57;5.55;96649.31;6295934;28;20349;-74
2023/04/28 05:55:31;;;;;;;3.78;1.75;;;;;;;50.41;5.29;96648.28;6296059;28;20048;-74
2023/04/28 05:58:36;;;;;;;3.50;1.20;;;;;;;51.42;4.82;96654.88;6295711;28;20053;-74
2023/04/28 06:01:37;;;;;;;4.25;1.02;;;;;;;51.82;4.33;96653.59;6295647;28;20044;-74
2023/04/28 06:04:43;;;;;;;5.45;1.15;;;;;;;51.05;4.45;96649.72;6294987;28;20407;-74
2023/04/28 06:07:52;;;;;;;3.35;1.00;;;;;;;51.41;4.36;96647.63;6295882;28;20040;-74
2023/04/28 06:10:59;;;;;;;4.28;1.20;;;;;;;52.25;3.97;96654.31;6295761;28;20498;-73
2023/04/28 06:14:04;;;;;;;3.22;1.17;;;;;;;53.17;3.75;96642.78;6295166;28;20178;-74
2023/04/28 06:17:07;;;;;;;4.03;1.50;;;;;;;53.64;3.49;96652.53;6294891;28;20056;-74
2023/04/28 06:20:12;;;;;;;3.13;1.30;;;;;;;53.50;3.61;96643.97;6294780;28;20625;-74
2023/04/28 06:23:14;;;;;;;5.57;1.45;;;;;;;52.88;3.95;96642.41;6295430;28;20063;-74
2023/04/28 06:26:22;;;;;;;4.75;1.20;;;;;;;51.23;4.31;96644.47;6293264;28;20470;-75
2023/04/28 06:29:24;;;;;;;4.30;1.85;;;;;;;50.01;5.06;96632.53;6294376;28;20075;-74
2023/04/28 06:32:31;;;;;;;13.70;2.30;;;;;;;49.78;4.98;96638.72;6295228;28;20044;-74
2023/04/28 06:35:37;;;;;;;5.32;1.23;;;;;;;49.59;5.02;96633.84;6294718;28;20206;-74
2023/04/28 06:38:42;;;;;;;3.17;1.50;;;;;;;50.74;4.46;96631.84;6295190;28;20060;-75
2023/04/28 06:41:47;;;;;;;7.28;1.45;;;;;;;52.45;3.96;96629.78;6295375;28;20410;-74
2023/04/28 06:44:54;;;;;;;5.20;1.67;;;;;;;53.08;3.76;96633.84;6294982;28;20563;-74
2023/04/28 06:47:58;;;;;;;4.88;1.85;;;;;;;53.94;3.56;96635.56;6293595;28;20056;-75
2023/04/28 06:51:06;;;;;;;7.95;2.55;;;;;;;54.05;3.54;96630.03;6294663;28;20048;-74
2023/04/28 06:54:13;;;;;;;8.67;2.13;;;;;;;54.61;3.31;96625.97;6294950;28;20521;-74
2023/04/28 06:57:15;;;;;;;9.75;2.30;;;;;;;55.40;2.82;96622.69;6294101;28;20052;-74
2023/04/28 07:00:22;;;;;;;10.02;2.67;;;;;;;56.21;2.76;96624.78;6294199;28;20147;-74
2023/04/28 07:03:29;;;;;;;4.45;1.92;;;;;;;56.60;2.59;96626.75;6294742;28;20471;-74
2023/04/28 07:06:35;;;;;;;5.50;1.90;;;;;;;56.30;2.39;96617.94;6294810;28;20516;-73
2023/04/28 07:09:40;;;;;;;6.57;1.80;;;;;;;55.98;2.47;96607.47;6294809;28;20044;-74
2023/04/28 07:12:44;;;;;;;4.28;1.52;;;;;;;55.78;2.84;96610.66;6293723;28;20513;-75
2023/04/28 07:15:49;;;;;;;4.93;1.75;;;;;;;55.53;2.62;96605.00;6294304;28;20052;-75
2023/04/28 07:18:55;;;;;;;7.15;1.63;;;;;;;55.24;2.86;96594.81;6294187;28;20139;-74
2023/04/28 07:22:01;;;;;;;5.55;1.60;;;;;;;55.40;2.33;96594.50;6294571;28;20154;-74
2023/04/28 07:25:07;;;;;;;5.45;1.73;;;;;;;56.20;2.66;96602.56;6294412;28;20036;-74
2023/04/28 07:28:13;;;;;;;5.10;1.67;;;;;;;56.75;2.12;96596.41;6294443;28;20047;-74
2023/04/28 07:31:20;;;;;;;5.78;1.58;;;;;;;56.72;2.07;96585.94;6298562;28;20059;-74
2023/04/28 07:34:24;;;;;;;3.15;1.10;;;;;;;56.38;2.00;96583.59;6281483;28;20510;-74
2023/04/28 07:37:30;;;;;;;2.47;1.00;;;;;;;56.56;2.35;96579.94;6299228;28;20044;-75
2023/04/28 07:40:36;;;;;;;3.95;1.10;;;;;;;57.28;1.72;96578.41;6299348;28;20186;-75
2023/04/28 07:43:40;;;;;;;4.65;1.48;;;;;;;57.85;1.88;96576.41;6299153;28;20085;-75
2023/04/28 07:46:46;;;;;;;2.08;0.98;;;;;;;58.69;1.47;96586.47;6299122;28;20125;-73
2023/04/28 07:49:52;;;;;;;6.22;1.95;;;;;;;58.72;1.86;96585.63;6298792;28;20040;-74
2023/04/28 07:52:57;;;;;;;3.13;1.05;;;;;;;57.85;1.76;96582.06;6298780;28;20037;-74
2023/04/28 07:56:01;;;;;;;3.25;0.95;;;;;;;57.09;2.08;96559.09;6298739;28;20040;-74
2023/04/28 07:59:08;;;;;;;2.25;0.85;;;;;;;57.68;1.79;96564.78;6298595;28;20094;-74
2023/04/28 08:02:14;;;;;;;3.33;1.77;;;;;;;58.34;1.89;96560.91;6298644;28;20098;-74
2023/04/28 08:05:20;;;;;;;4.32;1.20;;;;;;;58.41;1.79;96560.09;6298545;28;20170;-73
2023/04/28 08:08:25;;;;;;;3.28;0.95;;;;;;;58.59;1.34;96566.31;6298013;28;20122;-74
2023/04/28 08:11:34;;;;;;;3.28;1.30;;;;;;;58.88;1.61;96561.09;6298183;28;20040;-74
2023/04/28 08:14:40;;;;;;;3.35;1.25;;;;;;;59.12;1.26;96569.72;6296573;28;20098;-74
2023/04/28 08:17:45;;;;;;;6.47;1.33;;;;;;;58.91;1.43;96559.44;6298280;28;20054;-73
2023/04/28 08:20:53;;;;;;;3.05;1.40;;;;;;;59.04;1.64;96557.66;6297969;28;20136;-73
2023/04/28 08:23:55;;;;;;;4.85;1.63;;;;;;;58.54;1.35;96558.28;6297645;28;20052;-74
2023/04/28 08:27:01;;;;;;;7.30;1.02;;;;;;;54.82;2.06;96537.13;6296670;28;20082;-75
2023/04/28 08:30:06;;;;;;;3.15;0.80;;;;;;;51.25;3.34;96523.56;6298055;28;20071;-75
2023/04/28 08:33:12;;;;;;;3.10;0.73;;;;;;;50.76;3.50;96519.44;6297853;28;20132;-74
2023/04/28 08:36:17;;;;;;;3.13;1.02;;;;;;;50.30;3.75;96517.28;6297541;28;20107;-74
2023/04/28 08:39:22;;;;;;;2.25;0.50;;;;;;;50.86;3.24;96515.22;6298053;28;20528;-74
2023/04/28 08:42:33;;;;;;;1.50;0.68;;;;;;;51.26;3.34;96517.56;6296972;28;20521;-74
2023/04/28 08:45:44;;;;;;;1.98;0.60;;;;;;;50.04;3.93;96508.69;6297182;28;20420;-74
2023/04/28 08:48:48;;;;;;;4.25;0.80;;;;;;;49.04;4.29;96503.41;6297252;28;20056;-74
2023/04/28 08:52:01;;;;;;;4.45;0.80;;;;;;;50.17;3.77;96499.00;6297227;28;20127;-75
2023/04/28 08:55:11;;;;;;;7.00;1.05;;;;;;;51.81;3.17;96500.47;6297493;28;20048;-74
2023/04/28 08:58:13;;;;;;;3.20;1.20;;;;;;;52.47;2.88;96499.03;6296811;28;20049;-73
2023/04/28 09:01:19;;;;;;;1.35;0.50;;;;;;;52.16;3.21;96516.25;6296966;28;20087;-75
2023/04/28 09:04:24;;;;;;;2.83;0.77;;;;;;;50.55;3.71;96497.41;6297033;28;20126;-74
2023/04/28 09:07:28;;;;;;;2.22;0.50;;;;;;;49.48;3.71;96489.34;6296449;28;20040;-74
2023/04/28 09:10:34;;;;;;;1.92;0.63;;;;;;;49.05;4.07;96485.47;6295010;28;20198;-74
2023/04/28 09:13:40;;;;;;;1.58;1.10;;;;;;;49.09;4.07;96483.56;6295244;28;20049;-75
2023/04/28 09:16:44;;;;;;;2.08;0.63;;;;;;;48.46;4.12;96485.00;6296717;28;20189;-74
2023/04/28 09:19:49;;;;;;;2.83;0.73;;;;;;;47.95;4.05;96481.88;6296613;28;20510;-74
2023/04/28 09:22:54;;;;;;;2.83;0.82;;;;;;;48.44;4.33;96481.78;6295362;28;20048;-74
2023/04/28 09:26:06;;;;;;;1.50;0.80;;;;;;;49.59;3.81;96493.25;6296298;28;20539;-75
2023/04/28 09:29:14;;;;;;;1.33;0.70;;;;;;;50.60;3.36;96491.50;6296758;28;20502;-74
2023/04/28 09:32:19;;;;;;;2.10;0.80;;;;;;;50.79;3.18;96496.28;6296099;28;20041;-74
2023/04/28 09:35:39;;;;;;;2.03;0.70;;;;;;;50.61;3.60;96500.72;6296294;28;20036;-75
2023/04/28 09:38:45;;;;;;;4.40;0.70;;;;;;;49.60;3.76;96489.25;6296453;28;20067;-75
2023/04/28 09:41:50;;;;;;;1.85;0.80;;;;;;;47.71;4.45;96479.13;6296551;28;20052;-74
2023/04/28 09:44:56;;;;;;;2.70;0.70;;;;;;;46.36;4.64;96474.88;6294502;28;20051;-74
2023/04/28 09:48:11;;;;;;;2.67;0.90;;;;;;;46.80;4.68;96466.13;6296097;28;20045;-74
2023/04/28 09:51:22;;;;;;;5.00;0.95;;;;;;;48.03;3.88;96475.38;6294415;28;20060;-75
2023/04/28 09:54:28;;;;;;;4.95;0.90;;;;;;;48.24;4.17;96471.59;6295036;28;20040;-75
2023/04/28 09:57:35;;;;;;;3.45;0.90;;;;;;;47.38;4.21;96474.47;6295620;28;20040;-74
2023/04/28 10:00:40;;;;;;;2.40;0.95;;;;;;;47.57;4.35;96463.56;6295959;28;20037;-74
2023/04/28 10:03:48;;;;;;;1.98;0.90;;;;;;;47.63;3.94;96456.59;6295707;28;20036;-74
2023/04/28 10:06:52;;;;;;;1.83;0.85;;;;;;;46.77;4.66;96456.50;6295590;28;20063;-74
2023/04/28 10:09:57;;;;;;;2.40;0.88;;;;;;;45.23;5.31;96452.53;6295487;28;20052;-73
2023/04/28 10:13:02;;;;;;;1.63;0.63;;;;;;;45.03;5.22;96452.09;6294039;28;20136;-75
2023/04/28 10:16:17;;;;;;;2.55;0.80;;;;;;;45.69;4.66;96459.16;6366987;27;20136;-74
2023/04/28 10:19:20;;;;;;;3.25;1.08;;;;;;;46.03;4.89;96460.88;6341345;28;20042;-74
2023/04/28 10:23:00;;;;;;;1.85;0.90;;;;;;;46.11;4.99;96450.84;6341379;28;20135;-73
2023/04/28 10:26:09;;;;;;;1.95;1.08;;;;;;;46.43;4.83;96452.09;6341040;28;20120;-75
2023/04/28 10:29:13;;;;;;;2.58;0.73;;;;;;;45.75;4.98;96446.72;6341210;28;20036;-75
2023/04/28 10:32:19;;;;;;;3.38;1.30;;;;;;;44.53;5.43;96433.28;6341071;28;20490;-75
2023/04/28 10:35:24;;;;;;;2.10;1.00;;;;;;;43.60;5.97;96445.66;6340120;28;20154;-74
2023/04/28 10:38:29;;;;;;;2.92;1.00;;;;;;;43.04;5.79;96438.91;6341055;28;20040;-75
2023/04/28 10:41:54;;;;;;;1.52;1.10;;;;;;;42.80;5.92;96428.19;6340948;28;20130;-75
2023/04/28 10:44:55;;;;;;;1.30;1.20;;;;;;;42.55;6.28;96435.19;6322703;28;20040;-73
2023/04/28 10:48:04;;;;;;;4.25;1.23;;;;;;;41.44;6.63;96435.50;6323073;28;20069;-73
2023/04/28 10:51:14;;;;;;;1.13;0.90;;;;;;;41.20;6.58;96432.97;6322744;28;20036;-74
2023/04/28 10:54:19;;;;;;;1.65;0.90;;;;;;;41.02;6.84;96431.94;6340488;28;20050;-74
2023/04/28 10:57:21;;;;;;;2.60;0.90;;;;;;;40.69;7.06;96427.59;6304707;28;20051;-75
2023/04/28 11:00:31;;;;;;;4.13;1.00;;;;;;;40.51;7.00;96418.22;6340311;28;20047;-73
2023/04/28 11:04:06;;;;;;;2.28;1.08;;;;;;;40.69;7.03;96427.59;6322620;28;20050;-75
2023/04/28 11:07:13;;;;;;;2.38;1.25;;;;;;;40.34;7.43;96424.31;6340513;28;20416;-74
2023/04/28 11:10:18;;;;;;;1.98;0.75;;;;;;;39.82;7.50;96415.22;6322008;28;20040;-74
2023/04/28 11:13:33;;;;;;;1.85;1.20;;;;;;;40.63;7.21;96428.84;6338459;28;20055;-74
2023/04/28 11:16:52;;;;;;;2.80;1.20;;;;;;;40.39;7.04;96413.19;6340017;28;20051;-76
2023/04/28 11:19:59;;;;;;;4.00;1.33;;;;;;;38.15;8.32;96404.63;6339969;28;20409;-74
2023/04/28 11:23:09;;;;;;;2.72;1.25;;;;;;;35.48;9.51;96411.00;6321636;28;20048;-74
2023/04/28 11:26:13;;;;;;;3.83;1.02;;;;;;;34.50;9.98;96414.28;6312632;28;20044;-75
2023/04/28 11:29:17;;;;;;;3.53;1.13;;;;;;;33.41;10.91;96403.47;6305196;28;20039;-75
2023/04/28 11:32:32;;;;;;;4.07;1.65;;;;;;;33.11;11.11;96403.13;6288610;28;20130;-75
2023/04/28 11:35:41;;;;;;;3.17;1.25;;;;;;;32.76;11.61;96409.72;6303926;28;20117;-75
2023/04/28 11:38:48;;;;;;;2.33;1.10;;;;;;;32.20;11.35;96407.78;6288343;28;20043;-75
2023/04/28 11:41:56;;;;;;;3.25;1.20;;;;;;;31.88;11.63;96406.69;6305002;28;20036;-75
2023/04/28 11:44:57;;;;;;;2.67;1.00;;;;;;;32.32;11.24;96409.59;6304147;28;20048;-74
2023/04/28 11:48:04;;;;;;;4.40;1.45;;;;;;;32.56;11.63;96405.66;6304480;28;20505;-74
2023/04/28 11:51:42;;;;;;;2.35;0.90;;;;;;;33.19;11.05;96402.66;6304378;28;20078;-76
2023/04/28 11:54:56;;;;;;;2.72;1.55;;;;;;;34.38;10.32;96415.31;6273047;28;20059;-75
2023/04/28 11:58:23;;;;;;;1.50;1.08;;;;;;;35.46;9.77;96424.91;6303432;28;20056;-76
2023/04/28 12:01:30;;;;;;;2.80;1.08;;;;;;;35.22;9.79;96421.84;6302350;28;20417;-75
2023/04/28 12:04:43;;;;;;;5.97;1.20;;;;;;;34.17;10.46;96408.06;6304023;28;20135;-75
2023/04/28 12:07:48;;;;;;;6.60;1.70;;;;;;;33.38;10.92;96397.72;6322220;28;20421;-76
2023/04/28 12:11:14;;;;;;;3.45;1.38;;;;;;;32.94;10.89;96406.69;6288208;28;20568;-76
2023/04/28 12:14:22;;;;;;;2.80;1.00;;;;;;;33.01;11.12;96409.28;6321611;28;20502;-74
2023/04/28 12:17:37;;;;;;;2.92;1.08;;;;;;;32.85;10.80;96402.75;6321466;28;20066;-75
2023/04/28 12:20:40;;;;;;;2.20;1.58;;;;;;;33.04;10.96;96398.69;6321586;28;20036;-75
2023/04/28 12:23:46;;;;;;;4.53;1.42;;;;;;;33.12;10.91;96391.13;6321450;28;20052;-75
2023/04/28 12:26:54;;;;;;;3.35;1.33;;;;;;;32.91;11.01;96399.03;6320591;28;20048;-75
2023/04/28 12:29:57;;;;;;;2.65;1.10;;;;;;;32.23;11.26;96394.75;6319231;28;20048;-75
2023/04/28 12:33:03;;;;;;;2.28;1.40;;;;;;;31.80;11.83;96396.22;6320459;28;20047;-76
2023/04/28 12:36:07;;;;;;;2.63;1.23;;;;;;;31.65;11.64;96400.31;6320097;28;20567;-74
2023/04/28 12:39:15;;;;;;;4.90;1.52;;;;;;;31.26;12.13;96391.94;6319415;28;20051;-75
2023/04/28 12:42:21;;;;;;;6.63;1.80;;;;;;;30.42;12.46;96389.59;6320108;28;20048;-75
2023/04/28 12:45:23;;;;;;;3.92;1.35;;;;;;;29.83;13.09;96396.84;6319330;28;20070;-75
2023/04/28 12:48:26;;;;;;;4.37;1.57;;;;;;;30.06;13.14;96392.53;6320337;28;20055;-75
2023/04/28 12:51:30;;;;;;;5.65;1.88;;;;;;;29.68;13.35;96399.19;6320004;28;20449;-75
2023/04/28 12:54:33;;;;;;;11.27;1.77;;;;;;;29.31;13.48;96401.97;6319388;28;20052;-75
2023/04/28 12:57:37;;;;;;;3.60;1.38;;;;;;;29.58;13.24;96396.16;6320217;28;20052;-75
2023/04/28 13:01:00;;;;;;;7.55;1.98;;;;;;;29.28;13.50;96397.03;6320446;28;20387;-75
2023/04/28 13:04:04;;;;;;;3.22;1.80;;;;;;;28.71;13.70;96397.28;6320295;28;20036;-75
2023/04/28 13:07:08;;;;;;;4.65;2.13;;;;;;;28.29;14.58;96404.34;6319387;28;20047;-75
2023/04/28 13:10:12;;;;;;;4.85;1.80;;;;;;;27.86;15.13;96405.97;6320226;28;20043;-73
2023/04/28 13:13:18;;;;;;;2.20;1.60;;;;;;;27.59;15.59;96399.06;6319367;28;20370;-74
2023/04/28 13:16:20;;;;;;;2.42;1.63;;;;;;;27.37;15.58;96402.09;6318920;28;20047;-75
2023/04/28 13:19:26;;;;;;;2.90;1.63;;;;;;;26.80;15.92;96366.81;6319981;28;20044;-74
2023/04/28 13:22:31;;;;;;;3.85;2.00;;;;;;;27.19;16.22;96405.53;6286129;28;20039;-76
2023/04/28 13:25:37;;;;;;;6.00;2.15;;;;;;;27.12;16.33;96414.66;6319364;28;20509;-75
2023/04/28 13:28:44;;;;;;;6.32;1.98;;;;;;;26.99;16.55;96410.16;6320019;28;20040;-75
2023/04/28 13:31:47;;;;;;;5.50;2.17;;;;;;;26.76;17.06;96411.50;6320229;28;20043;-75
2023/04/28 13:34:52;;;;;;;7.45;3.28;;;;;;;26.58;16.93;96414.00;6319822;28;20130;-75
2023/04/28 13:38:03;;;;;;;3.30;2.10;;;;;;;26.29;17.28;96410.72;6319773;28;20054;-75
2023/04/28 13:41:09;;;;;;;4.38;1.95;;;;;;;26.03;17.52;96413.44;6319763;28;20043;-75
2023/04/28 13:44:11;;;;;;;6.10;2.22;;;;;;;26.02;17.43;96409.94;6318678;28;20216;-76
2023/04/28 13:47:15;;;;;;;8.95;2.63;;;;;;;26.15;17.59;96420.69;6300556;28;20220;-75
2023/04/28 13:50:22;;;;;;;10.57;2.55;;;;;;;26.27;17.53;96420.91;6318864;28;20044;-76
2023/04/28 13:53:28;;;;;;;5.93;2.70;;;;;;;26.18;17.24;96416.75;6319336;28;20036;-75
2023/04/28 13:56:31;;;;;;;8.75;2.67;;;;;;;26.05;17.43;96419.47;6318950;28;20051;-76
2023/04/28 13:59:36;;;;;;;11.27;2.40;;;;;;;25.81;17.49;96423.56;6318615;28;20100;-76
2023/04/28 14:02:40;;;;;;;5.35;2.42;;;;;;;25.82;17.30;96434.16;6319398;28;20418;-75
2023/04/28 14:05:44;;;;;;;4.45;2.28;;;;;;;25.57;17.63;96427.69;6318293;28;20185;-75
2023/04/28 14:08:51;;;;;;;6.47;2.20;;;;;;;25.42;17.63;96425.16;6319463;28;20044;-76
2023/04/28 14:11:55;;;;;;;3.28;2.30;;;;;;;25.24;17.95;96431.13;6318265;28;20055;-75
2023/04/28 14:14:59;;;;;;;5.57;2.50;;;;;;;25.14;17.74;96434.22;6318057;28;20058;-75
2023/04/28 14:18:01;;;;;;;8.07;2.58;;;;;;;25.02;17.50;96433.91;6318407;28;20086;-76
2023/04/28 14:21:06;;;;;;;5.30;2.53;;;;;;;24.93;17.65;96437.81;6317849;28;20056;-76
2023/04/28 14:24:11;;;;;;;3.35;2.30;;;;;;;24.70;17.72;96426.53;6318613;28;20563;-76
2023/04/28 14:27:14;;;;;;;7.65;2.80;;;;;;;24.62;17.55;96447.16;6318776;28;20044;-75
2023/04/28 14:30:20;;;;;;;4.43;2.33;;;;;;;24.42;17.69;96446.19;6319054;28;20040;-75
2023/04/28 14:33:26;;;;;;;7.30;2.75;;;;;;;24.28;17.48;96439.06;6319260;28;20132;-76
2023/04/28 14:36:37;;;;;;;6.75;2.53;;;;;;;24.04;18.00;96445.72;6318769;28;20451;-76
2023/04/28 14:39:42;;;;;;;5.07;3.00;;;;;;;23.87;17.90;96443.31;6319029;28;20043;-76